Time;durP1;ratioP1;P1;durP2;ratioP2;P2;SDS_P1;SDS_P2;PMS_P1;PMS_P2;Temp;Humidity;BMP_temperature;BMP_pressure;BME280_temperature;BME280_humidity;BME280_pressure;Samples;Min_cycle;Max_cycle;Signal;HPM_P1;HPM_P2
2022/12/05 00:01:23;;;;;;;28.05;17.20;;;4.50;99.90;;;;;;7377173;19;20109;-52
2022/12/05 00:03:53;;;;;;;26.65;15.60;;;4.50;99.90;;;;;;7375751;19;20025;-51
2022/12/05 00:06:20;;;;;;;26.30;17.17;;;4.60;99.90;;;;;;7377650;19;21198;-52
2022/12/05 00:08:47;;;;;;;30.35;19.75;;;4.60;99.90;;;;;;7383415;19;20014;-54
2022/12/05 00:11:19;;;;;;;26.48;18.55;;;4.60;99.90;;;;;;7381391;19;20018;-54
2022/12/05 00:13:48;;;;;;;25.70;16.52;;;4.60;99.90;;;;;;7376040;19;20146;-47
2022/12/05 00:16:16;;;;;;;24.90;18.08;;;4.60;99.90;;;;;;7375746;19;20028;-50
2022/12/05 00:18:43;;;;;;;25.58;16.48;;;4.60;99.90;;;;;;7371916;19;20042;-48
2022/12/05 00:21:21;;;;;;;26.95;17.90;;;4.60;99.90;;;;;;7377166;19;20077;-51
2022/12/05 00:23:49;;;;;;;26.13;17.40;;;4.60;99.90;;;;;;7375358;19;20367;-53
2022/12/05 00:26:19;;;;;;;25.60;17.17;;;4.60;99.90;;;;;;7376588;19;20528;-49
2022/12/05 00:28:45;;;;;;;26.48;18.13;;;4.60;99.90;;;;;;7371071;19;20010;-49
2022/12/05 00:31:15;;;;;;;30.27;19.98;;;4.70;99.90;;;;;;7376326;19;20022;-50
2022/12/05 00:33:42;;;;;;;25.55;17.38;;;4.70;99.90;;;;;;7374103;19;20060;-49
2022/12/05 00:36:15;;;;;;;29.52;18.88;;;4.70;99.90;;;;;;7376014;19;20047;-50
2022/12/05 00:38:41;;;;;;;25.20;18.35;;;4.70;99.90;;;;;;7374007;19;20042;-55
2022/12/05 00:41:11;;;;;;;28.70;18.83;;;4.70;99.90;;;;;;7377893;19;20023;-53
2022/12/05 00:43:37;;;;;;;27.90;19.35;;;4.70;99.90;;;;;;7374835;19;20470;-49
2022/12/05 00:46:06;;;;;;;30.70;20.00;;;4.70;99.90;;;;;;7374314;19;20018;-50
2022/12/05 00:48:33;;;;;;;33.35;19.13;;;4.70;99.90;;;;;;7371347;19;20018;-53
2022/12/05 00:51:28;;;;;;;30.30;19.92;;;4.70;99.90;;;;;;7379896;19;20432;-53
2022/12/05 00:54:00;;;;;;;29.10;19.35;;;4.70;99.90;;;;;;7377639;19;20022;-51
2022/12/05 00:56:28;;;;;;;30.88;18.73;;;4.70;99.90;;;;;;7377631;19;20029;-53
2022/12/05 00:58:56;;;;;;;31.15;20.27;;;4.70;99.90;;;;;;7372650;19;20010;-54
2022/12/05 01:01:24;;;;;;;33.63;19.55;;;4.70;99.90;;;;;;7378886;19;20352;-53
2022/12/05 01:03:52;;;;;;;29.17;19.15;;;4.70;99.90;;;;;;7378276;19;20078;-53
2022/12/05 01:06:19;;;;;;;32.22;19.95;;;4.70;99.90;;;;;;7377817;19;20616;-54
2022/12/05 01:08:46;;;;;;;26.92;17.77;;;4.70;99.90;;;;;;7375018;19;20573;-48
2022/12/05 01:11:15;;;;;;;32.10;19.88;;;4.70;99.90;;;;;;7372278;19;20015;-48
2022/12/05 01:13:42;;;;;;;30.40;18.95;;;4.70;99.90;;;;;;7372986;19;20620;-49
2022/12/05 01:16:35;;;;;;;28.83;18.60;;;4.70;99.90;;;;;;7374358;19;20106;-47
2022/12/05 01:19:05;;;;;;;28.02;19.05;;;4.70;99.90;;;;;;7374479;19;20018;-46
2022/12/05 01:21:32;;;;;;;33.85;19.17;;;4.70;99.90;;;;;;7372124;19;20082;-46
2022/12/05 01:23:58;;;;;;;28.65;17.67;;;4.70;99.90;;;;;;7371927;19;20018;-46
2022/12/05 01:26:25;;;;;;;29.48;18.48;;;4.80;99.90;;;;;;7371081;19;20036;-46
2022/12/05 01:28:52;;;;;;;32.65;21.23;;;4.80;99.90;;;;;;7370057;19;20014;-45
2022/12/05 01:31:23;;;;;;;33.42;20.77;;;4.80;99.90;;;;;;7373514;19;20018;-45
2022/12/05 01:33:50;;;;;;;31.55;19.75;;;4.80;99.90;;;;;;7369580;19;20023;-45
2022/12/05 01:36:18;;;;;;;31.63;22.23;;;4.80;99.90;;;;;;7371622;19;20024;-45
2022/12/05 01:38:44;;;;;;;33.50;21.48;;;4.80;99.90;;;;;;7372250;19;20105;-45
2022/12/05 01:41:16;;;;;;;32.90;20.60;;;4.80;99.90;;;;;;7368896;19;20131;-47
2022/12/05 01:44:11;;;;;;;29.02;20.83;;;4.80;99.90;;;;;;7373452;19;20534;-47
2022/12/05 01:46:48;;;;;;;36.67;21.92;;;4.80;99.90;;;;;;7366147;19;20043;-44
2022/12/05 01:49:16;;;;;;;35.72;21.75;;;4.80;99.90;;;;;;7370293;19;20135;-46
2022/12/05 01:51:49;;;;;;;33.83;20.83;;;4.80;99.90;;;;;;7371610;19;20049;-48
2022/12/05 01:54:17;;;;;;;33.42;20.38;;;4.80;99.90;;;;;;7372602;19;20533;-45
2022/12/05 01:56:51;;;;;;;36.65;21.63;;;4.80;99.90;;;;;;7372538;19;20597;-45
2022/12/05 01:59:20;;;;;;;34.67;21.48;;;4.80;99.90;;;;;;7369007;19;20014;-49
2022/12/05 02:01:46;;;;;;;34.35;20.63;;;4.80;99.90;;;;;;7368856;19;20038;-46
2022/12/05 02:04:13;;;;;;;37.08;23.80;;;4.80;99.90;;;;;;7368997;19;20022;-45
2022/12/05 02:06:40;;;;;;;36.90;23.05;;;4.80;99.90;;;;;;7367283;19;20022;-46
2022/12/05 02:09:06;;;;;;;36.72;22.92;;;4.90;99.90;;;;;;7370875;19;20022;-46
2022/12/05 02:11:34;;;;;;;39.95;23.95;;;4.80;99.90;;;;;;7368688;19;20022;-50
2022/12/05 02:14:07;;;;;;;42.78;23.63;;;4.90;99.90;;;;;;7365832;19;20493;-46
2022/12/05 02:16:51;;;;;;;36.97;23.73;;;4.90;99.90;;;;;;7370157;19;20644;-48
2022/12/05 02:19:36;;;;;;;40.67;24.30;;;4.90;99.90;;;;;;7368141;19;20438;-47
2022/12/05 02:22:14;;;;;;;48.08;25.73;;;4.90;99.90;;;;;;7371116;19;20090;-47
2022/12/05 02:24:55;;;;;;;47.45;25.58;;;4.90;99.90;;;;;;7371901;19;20343;-47
2022/12/05 02:27:51;;;;;;;40.10;23.05;;;4.90;99.90;;;;;;7369446;19;20509;-46
2022/12/05 02:30:20;;;;;;;41.75;23.98;;;4.90;99.90;;;;;;7369586;19;20368;-49
2022/12/05 02:33:12;;;;;;;44.97;25.33;;;4.90;99.90;;;;;;7367739;19;20031;-49
2022/12/05 02:35:44;;;;;;;45.13;25.70;;;4.90;99.90;;;;;;7370117;19;20010;-46
2022/12/05 02:38:31;;;;;;;44.40;24.35;;;4.90;99.90;;;;;;7369372;19;20581;-46
2022/12/05 02:41:10;;;;;;;49.35;26.20;;;5.00;99.90;;;;;;7368850;19;20022;-48
2022/12/05 02:43:43;;;;;;;45.40;25.00;;;4.90;99.90;;;;;;7372420;19;20534;-49
2022/12/05 02:46:32;;;;;;;47.40;27.73;;;5.00;99.90;;;;;;7371024;19;20019;-49
2022/12/05 02:49:03;;;;;;;45.55;25.08;;;5.00;99.90;;;;;;7372342;19;20030;-55
2022/12/05 02:51:34;;;;;;;46.17;26.15;;;5.00;99.90;;;;;;7374417;19;20022;-54
2022/12/05 02:54:05;;;;;;;52.90;28.88;;;5.00;99.90;;;;;;7372314;19;21066;-53
2022/12/05 02:56:35;;;;;;;57.63;29.08;;;5.00;99.90;;;;;;7372326;19;20037;-50
2022/12/05 02:59:01;;;;;;;52.72;25.70;;;5.00;99.90;;;;;;7371312;19;20019;-54
2022/12/05 03:01:30;;;;;;;47.47;27.13;;;5.00;99.90;;;;;;7377437;19;20336;-54
2022/12/05 03:03:59;;;;;;;49.55;27.88;;;5.00;99.90;;;;;;7373356;19;20018;-53
2022/12/05 03:06:35;;;;;;;48.33;27.45;;;5.10;99.90;;;;;;7371359;19;20018;-54
2022/12/05 03:09:07;;;;;;;48.95;25.50;;;5.10;99.90;;;;;;7373048;19;20029;-54
2022/12/05 03:11:50;;;;;;;45.40;27.17;;;5.10;99.90;;;;;;7372552;19;20439;-55
2022/12/05 03:14:22;;;;;;;45.25;25.42;;;5.20;99.90;;;;;;7379064;19;20057;-53
2022/12/05 03:16:53;;;;;;;;;;;5.10;99.90;;;;;;7379663;19;20029;-53
2022/12/05 03:19:29;;;;;;;43.17;24.00;;;5.10;99.90;;;;;;7377888;19;19931;-53
2022/12/05 03:22:23;;;;;;;42.30;23.80;;;5.10;99.90;;;;;;7375957;19;20660;-53
2022/12/05 03:24:50;;;;;;;43.92;23.67;;;5.20;99.90;;;;;;7380943;19;20042;-52
2022/12/05 03:27:37;;;;;;;45.55;24.13;;;5.10;99.90;;;;;;7382727;19;20387;-52
2022/12/05 03:30:10;;;;;;;43.67;23.42;;;5.20;99.90;;;;;;7378217;19;20066;-52
2022/12/05 03:32:48;;;;;;;44.78;25.30;;;5.20;99.90;;;;;;7377552;19;20146;-54
2022/12/05 03:35:22;;;;;;;44.22;24.15;;;5.20;99.90;;;;;;7381841;19;20018;-52
2022/12/05 03:37:59;;;;;;;47.88;23.70;;;5.20;99.90;;;;;;7371421;19;20025;-52
2022/12/05 03:40:43;;;;;;;44.38;24.65;;;5.20;99.90;;;;;;7374057;19;20026;-51
2022/12/05 03:43:22;;;;;;;38.58;23.25;;;5.20;99.90;;;;;;7373322;19;20049;-52
2022/12/05 03:46:01;;;;;;;46.38;24.27;;;5.20;99.90;;;;;;7372381;19;20029;-53
2022/12/05 03:48:33;;;;;;;37.55;22.67;;;5.20;99.90;;;;;;7370559;19;20025;-53
2022/12/05 03:51:02;;;;;;;40.33;23.92;;;5.20;99.90;;;;;;7375192;19;20377;-53
2022/12/05 03:53:37;;;;;;;39.10;22.02;;;5.20;99.90;;;;;;7374020;19;20326;-52
2022/12/05 03:56:13;;;;;;;33.92;21.95;;;5.20;99.90;;;;;;7374417;19;20644;-53
2022/12/05 03:58:50;;;;;;;37.60;21.75;;;5.30;99.90;;;;;;7371518;19;20022;-53
2022/12/05 04:01:19;;;;;;;36.85;21.38;;;5.30;99.90;;;;;;7373698;19;20021;-53
2022/12/05 04:03:51;;;;;;;36.88;20.38;;;5.30;99.90;;;;;;7371045;19;20026;-53
2022/12/05 04:06:17;;;;;;;34.58;19.55;;;5.30;99.90;;;;;;7373198;19;20090;-53
2022/12/05 04:08:49;;;;;;;33.28;18.90;;;5.30;99.90;;;;;;7369580;19;20106;-53
2022/12/05 04:11:19;;;;;;;36.60;20.45;;;5.30;99.90;;;;;;7375707;19;20019;-53
2022/12/05 04:13:51;;;;;;;33.30;19.10;;;5.30;99.90;;;;;;7377200;19;20022;-53
2022/12/05 04:17:02;;;;;;;28.95;18.33;;;5.30;99.90;;;;;;7383243;19;20015;-53
2022/12/05 04:22:25;;;;;;;25.80;17.08;;;5.30;99.90;;;;;;7381173;19;20019;-49
2022/12/05 04:28:22;;;;;;;27.92;17.58;;;5.30;99.90;;;;;;7379790;19;20126;-52
2022/12/05 04:31:09;;;;;;;28.23;17.48;;;5.30;99.90;;;;;;7379571;19;20015;-53
2022/12/05 04:33:53;;;;;;;26.02;17.17;;;5.30;99.90;;;;;;7381055;19;20018;-50
2022/12/05 04:36:22;;;;;;;26.85;18.08;;;5.30;99.90;;;;;;7376257;19;20019;-52
2022/12/05 04:39:02;;;;;;;28.25;18.02;;;5.30;99.90;;;;;;7375102;19;20040;-52
2022/12/05 04:41:36;;;;;;;23.60;16.45;;;5.30;99.90;;;;;;7378258;19;20022;-53
2022/12/05 04:44:07;;;;;;;25.17;17.67;;;5.30;99.90;;;;;;7380479;19;20342;-51
2022/12/05 04:46:34;;;;;;;;;;;5.30;99.90;;;;;;7380911;19;20521;-53
2022/12/05 04:49:04;;;;;;;24.63;17.48;;;5.30;99.90;;;;;;7382651;19;19926;-53
2022/12/05 04:51:34;;;;;;;23.90;15.55;;;5.30;99.90;;;;;;7382606;19;20098;-52
2022/12/05 04:54:22;;;;;;;26.40;16.63;;;5.30;99.90;;;;;;7382280;19;20553;-54
2022/12/05 04:56:53;;;;;;;23.90;17.02;;;5.30;99.90;;;;;;7376264;19;20057;-52
2022/12/05 04:59:20;;;;;;;22.42;16.27;;;5.40;99.90;;;;;;7374009;19;20062;-53
2022/12/05 05:01:55;;;;;;;22.88;15.23;;;5.40;99.90;;;;;;7375642;19;20498;-51
2022/12/05 05:04:29;;;;;;;23.10;15.80;;;5.40;99.90;;;;;;7378739;19;21413;-52
2022/12/05 05:06:55;;;;;;;25.27;16.13;;;5.40;99.90;;;;;;7377941;19;20022;-51
2022/12/05 05:09:22;;;;;;;23.45;14.82;;;5.30;99.90;;;;;;7377418;19;20532;-51
2022/12/05 05:11:48;;;;;;;21.73;14.55;;;5.40;99.90;;;;;;7375436;19;20501;-50
2022/12/05 05:14:15;;;;;;;21.13;15.18;;;5.40;99.90;;;;;;7378578;19;20023;-52
2022/12/05 05:16:42;;;;;;;21.60;13.95;;;5.40;99.90;;;;;;7377850;19;20407;-48
2022/12/05 05:19:10;;;;;;;18.75;14.20;;;5.40;99.90;;;;;;7377207;19;20029;-52
2022/12/05 05:21:40;;;;;;;20.20;14.45;;;5.40;99.90;;;;;;7375485;19;20604;-53
2022/12/05 05:24:08;;;;;;;16.45;12.57;;;5.40;99.90;;;;;;7377329;19;20528;-53
2022/12/05 05:26:38;;;;;;;14.90;11.45;;;5.40;99.90;;;;;;7375556;19;20473;-51
2022/12/05 05:29:06;;;;;;;16.17;11.40;;;5.40;99.90;;;;;;7372729;19;20213;-48
2022/12/05 05:31:32;;;;;;;16.75;11.93;;;5.40;99.90;;;;;;7374410;19;20018;-53
2022/12/05 05:33:59;;;;;;;12.88;9.45;;;5.40;99.90;;;;;;7367527;19;20479;-52
2022/12/05 05:36:26;;;;;;;11.60;8.80;;;5.40;99.90;;;;;;7363684;19;20022;-49
2022/12/05 05:46:42;;;;;;;11.40;7.97;;;5.40;99.90;;;;;;7360332;19;20638;-48
2022/12/05 05:49:09;;;;;;;10.65;8.15;;;5.40;99.90;;;;;;7368580;19;20045;-52
2022/12/05 05:51:36;;;;;;;9.52;7.57;;;5.40;99.90;;;;;;7361263;19;20018;-47
2022/12/05 05:54:02;;;;;;;11.63;8.88;;;5.40;99.90;;;;;;7359991;19;20014;-48
2022/12/05 05:56:29;;;;;;;10.82;8.60;;;5.40;99.90;;;;;;7366823;19;20096;-53
2022/12/05 05:59:01;;;;;;;10.25;7.75;;;5.40;99.90;;;;;;7357753;19;20019;-53
2022/12/05 06:01:29;;;;;;;10.10;7.80;;;5.40;99.90;;;;;;7365311;19;20011;-54
2022/12/05 06:03:56;;;;;;;14.52;11.05;;;5.40;99.90;;;;;;7363938;19;20022;-52
2022/12/05 06:06:23;;;;;;;28.13;19.10;;;5.50;99.90;;;;;;7366486;19;20026;-52
2022/12/05 06:08:49;;;;;;;11.98;10.35;;;5.40;99.90;;;;;;7362705;19;20479;-46
2022/12/05 06:11:21;;;;;;;15.40;10.93;;;5.40;99.90;;;;;;7357864;19;20474;-46
2022/12/05 06:13:48;;;;;;;12.38;10.43;;;5.50;99.90;;;;;;7357460;19;20033;-46
2022/12/05 06:16:16;;;;;;;17.85;13.57;;;5.50;99.90;;;;;;7362295;19;20478;-50
2022/12/05 06:18:43;;;;;;;16.25;11.23;;;5.50;99.90;;;;;;7362244;19;20022;-48
2022/12/05 06:21:10;;;;;;;12.02;9.90;;;5.50;99.90;;;;;;7360258;19;20388;-50
2022/12/05 06:23:38;;;;;;;12.43;9.63;;;5.50;99.90;;;;;;7362328;19;20023;-50
2022/12/05 06:26:09;;;;;;;12.45;10.02;;;5.50;99.90;;;;;;7363202;19;20302;-49
2022/12/05 06:28:36;;;;;;;15.57;10.65;;;5.50;99.90;;;;;;7362915;19;20014;-46
2022/12/05 06:31:08;;;;;;;14.02;11.05;;;5.50;99.90;;;;;;7361956;19;20037;-49
2022/12/05 06:33:34;;;;;;;24.02;17.42;;;5.50;99.90;;;;;;7362750;19;20039;-47
2022/12/05 06:36:16;;;;;;;13.27;9.27;;;5.50;99.90;;;;;;7360597;19;20018;-52
2022/12/05 06:38:43;;;;;;;26.98;19.75;;;5.50;99.90;;;;;;7366285;19;20022;-52
2022/12/05 06:41:13;;;;;;;14.50;11.73;;;5.50;99.90;;;;;;7362247;19;20022;-52
2022/12/05 06:43:40;;;;;;;15.20;11.15;;;5.50;99.90;;;;;;7363502;19;20018;-50
2022/12/05 06:46:09;;;;;;;13.48;9.02;;;5.50;99.90;;;;;;7363385;19;20464;-52
2022/12/05 06:48:36;;;;;;;12.30;9.10;;;5.50;99.90;;;;;;7367388;19;20035;-51
2022/12/05 06:51:02;;;;;;;19.45;14.30;;;5.40;99.90;;;;;;7364652;19;20052;-52
2022/12/05 06:53:29;;;;;;;16.20;12.07;;;5.40;99.90;;;;;;7365652;19;20042;-49
2022/12/05 06:55:59;;;;;;;11.00;8.63;;;5.40;99.90;;;;;;7361989;19;20019;-51
2022/12/05 06:58:25;;;;;;;21.10;14.85;;;5.40;99.90;;;;;;7364582;19;20437;-51
2022/12/05 07:03:42;;;;;;;14.43;10.63;;;5.40;99.90;;;;;;7358217;19;20129;-51
2022/12/05 07:06:09;;;;;;;21.77;15.05;;;5.50;99.90;;;;;;7358602;19;20022;-49
2022/12/05 07:08:35;;;;;;;10.23;7.45;;;5.50;99.90;;;;;;7359677;19;20041;-50
2022/12/05 07:11:03;;;;;;;11.80;8.63;;;5.50;99.90;;;;;;7357398;19;20014;-50
2022/12/05 07:13:29;;;;;;;16.05;11.73;;;5.50;99.90;;;;;;7359583;19;20761;-52
2022/12/05 07:15:57;;;;;;;9.73;7.15;;;5.50;99.90;;;;;;7357910;19;20022;-51
2022/12/05 07:18:24;;;;;;;8.88;6.57;;;5.50;99.90;;;;;;7362395;19;20015;-52
2022/12/05 07:20:59;;;;;;;12.25;8.75;;;5.50;99.90;;;;;;7360602;19;20011;-48
2022/12/05 07:23:25;;;;;;;14.63;9.35;;;5.50;99.90;;;;;;7358260;19;20048;-46
2022/12/05 07:25:52;;;;;;;16.30;10.82;;;5.50;99.90;;;;;;7362782;19;20010;-50
2022/12/05 07:28:18;;;;;;;28.15;19.88;;;5.50;99.90;;;;;;7361821;19;20379;-48
2022/12/05 07:30:45;;;;;;;18.17;12.13;;;5.50;99.90;;;;;;7360770;19;20514;-52
2022/12/05 07:33:11;;;;;;;16.27;13.65;;;5.50;99.90;;;;;;7359054;19;20047;-52
2022/12/05 07:35:38;;;;;;;12.25;9.07;;;5.50;99.90;;;;;;7363398;19;20022;-48
2022/12/05 07:38:04;;;;;;;11.30;7.47;;;5.50;99.90;;;;;;7363828;19;20661;-52
2022/12/05 07:40:31;;;;;;;16.67;12.23;;;5.50;99.90;;;;;;7365985;19;20016;-50
2022/12/05 07:42:58;;;;;;;13.35;9.15;;;5.50;99.90;;;;;;7353831;19;20452;-45
2022/12/05 07:45:24;;;;;;;11.45;8.10;;;5.50;99.90;;;;;;7359855;19;20100;-49
2022/12/05 07:47:51;;;;;;;14.88;10.35;;;5.50;99.90;;;;;;7362421;19;20015;-47
2022/12/05 07:50:17;;;;;;;15.88;10.70;;;5.50;99.90;;;;;;7361524;19;20015;-48
2022/12/05 07:52:44;;;;;;;16.83;11.57;;;5.50;99.90;;;;;;7354363;19;20010;-48
2022/12/05 07:55:11;;;;;;;18.98;11.77;;;5.50;99.90;;;;;;7361599;19;20497;-51
2022/12/05 07:57:37;;;;;;;13.65;8.05;;;5.50;99.90;;;;;;7360064;19;20022;-52
2022/12/05 08:00:05;;;;;;;9.80;7.25;;;5.60;99.90;;;;;;7366834;19;20472;-52
2022/12/05 08:02:38;;;;;;;12.98;10.18;;;5.60;99.90;;;;;;7369171;19;20011;-52
2022/12/05 08:05:06;;;;;;;13.07;9.90;;;5.60;99.90;;;;;;7367457;19;20022;-46
2022/12/05 08:07:32;;;;;;;15.75;11.23;;;5.60;99.90;;;;;;7366367;19;20015;-50
2022/12/05 08:09:59;;;;;;;15.25;10.52;;;5.60;99.90;;;;;;7368995;19;20022;-50
2022/12/05 08:12:25;;;;;;;12.40;8.48;;;5.60;99.90;;;;;;7366599;19;20654;-45
2022/12/05 08:14:52;;;;;;;13.63;9.82;;;5.60;99.90;;;;;;7365410;19;20876;-46
2022/12/05 08:17:18;;;;;;;12.68;8.50;;;5.60;99.90;;;;;;7361110;19;20048;-48
2022/12/05 08:20:05;;;;;;;15.43;11.15;;;5.60;99.90;;;;;;7366733;19;20796;-46
2022/12/05 08:22:52;;;;;;;13.43;8.75;;;5.60;99.90;;;;;;7363710;19;20014;-46
2022/12/05 08:25:19;;;;;;;16.58;11.10;;;5.60;99.90;;;;;;7363374;19;20405;-45
2022/12/05 08:27:46;;;;;;;13.85;9.55;;;5.60;99.90;;;;;;7364001;19;20561;-49
2022/12/05 08:30:12;;;;;;;15.20;10.52;;;5.60;99.90;;;;;;7362959;19;20062;-46
2022/12/05 08:32:39;;;;;;;14.60;9.35;;;5.60;99.90;;;;;;7360027;19;20126;-48
2022/12/05 08:35:06;;;;;;;15.45;10.32;;;5.60;99.90;;;;;;7365403;19;20024;-48
2022/12/05 08:37:32;;;;;;;15.98;8.82;;;5.60;99.90;;;;;;7363984;19;20459;-50
2022/12/05 08:39:59;;;;;;;13.95;8.57;;;5.60;99.90;;;;;;7363567;19;20665;-48
2022/12/05 08:42:25;;;;;;;15.68;10.07;;;5.60;99.90;;;;;;7363668;19;20034;-46
2022/12/05 08:44:51;;;;;;;12.40;9.75;;;5.60;99.90;;;;;;7360572;19;20030;-45
2022/12/05 08:47:18;;;;;;;16.60;10.52;;;5.60;99.90;;;;;;7366042;19;20427;-49
2022/12/05 08:49:44;;;;;;;16.67;10.63;;;5.60;99.90;;;;;;7359648;19;20029;-49
2022/12/05 08:52:11;;;;;;;14.30;8.77;;;5.60;99.90;;;;;;7364304;19;20021;-47
2022/12/05 08:54:37;;;;;;;16.30;9.50;;;5.60;99.90;;;;;;7361027;19;20493;-45
2022/12/05 08:57:04;;;;;;;12.90;8.23;;;5.60;99.90;;;;;;7364737;19;20427;-49
2022/12/05 08:59:30;;;;;;;14.45;8.77;;;5.60;99.90;;;;;;7359857;19;20035;-47
2022/12/05 09:01:57;;;;;;;17.27;11.18;;;5.60;99.90;;;;;;7360945;19;20019;-49
2022/12/05 09:04:24;;;;;;;14.48;9.32;;;5.60;99.90;;;;;;7362578;19;20015;-46
2022/12/05 09:06:51;;;;;;;12.80;8.80;;;5.60;99.90;;;;;;7361784;19;20981;-46
2022/12/05 09:09:17;;;;;;;13.85;8.55;;;5.50;99.90;;;;;;7361400;19;20049;-49
2022/12/05 09:11:49;;;;;;;14.40;9.93;;;5.60;99.90;;;;;;7362118;19;20026;-47
2022/12/05 09:14:16;;;;;;;15.98;10.60;;;5.50;99.90;;;;;;7363207;19;20022;-49
2022/12/05 09:16:45;;;;;;;12.80;9.15;;;5.60;99.90;;;;;;7361880;19;20757;-48
2022/12/05 09:19:19;;;;;;;13.07;9.85;;;5.50;99.90;;;;;;7362920;19;20015;-49
2022/12/05 09:21:46;;;;;;;16.65;12.30;;;5.50;99.90;;;;;;7365295;19;20383;-45
2022/12/05 09:24:13;;;;;;;15.93;9.88;;;5.60;99.90;;;;;;7359741;19;20899;-48
2022/12/05 09:26:41;;;;;;;19.92;13.63;;;5.60;99.90;;;;;;7361035;19;20025;-46
2022/12/05 09:29:08;;;;;;;25.23;16.63;;;5.50;99.90;;;;;;7361810;19;20042;-46
2022/12/05 09:31:35;;;;;;;15.18;9.50;;;5.60;99.90;;;;;;7360063;19;20026;-47
2022/12/05 09:34:02;;;;;;;15.82;10.30;;;5.60;99.90;;;;;;7359370;19;20018;-48
2022/12/05 09:36:30;;;;;;;11.32;7.97;;;5.50;99.90;;;;;;7359293;19;20062;-46
2022/12/05 09:39:03;;;;;;;15.30;9.52;;;5.50;99.90;;;;;;7362283;19;20021;-44
2022/12/05 09:44:29;;;;;;;14.07;10.30;;;5.60;99.90;;;;;;7361494;19;20517;-47
2022/12/05 09:47:10;;;;;;;23.42;16.40;;;5.50;99.90;;;;;;7358930;19;20014;-45
2022/12/05 09:49:43;;;;;;;13.20;9.23;;;5.50;99.90;;;;;;7365443;19;20081;-48
2022/12/05 09:52:41;;;;;;;14.57;9.05;;;5.60;99.90;;;;;;7363067;19;20011;-48
2022/12/05 09:55:17;;;;;;;14.10;9.38;;;5.60;99.90;;;;;;7356158;19;20979;-48
2022/12/05 09:57:59;;;;;;;12.32;9.38;;;5.50;99.90;;;;;;7358445;19;20022;-48
2022/12/05 10:00:28;;;;;;;23.60;15.23;;;5.60;99.90;;;;;;7364583;19;20666;-52
2022/12/05 10:03:20;;;;;;;12.10;7.68;;;5.50;99.90;;;;;;7369658;19;20018;-52
2022/12/05 10:06:00;;;;;;;13.25;8.50;;;5.50;99.90;;;;;;7371276;19;20482;-52
2022/12/05 10:08:59;;;;;;;13.27;7.60;;;5.50;99.90;;;;;;7371745;19;20077;-52
2022/12/05 10:11:43;;;;;;;19.20;12.52;;;5.50;99.90;;;;;;7369360;19;20387;-52
2022/12/05 10:14:19;;;;;;;15.27;9.70;;;5.50;99.90;;;;;;7365523;19;20074;-45
2022/12/05 10:16:53;;;;;;;16.63;11.48;;;5.50;99.90;;;;;;7361433;19;20021;-47
2022/12/05 10:19:30;;;;;;;19.08;12.98;;;5.50;99.90;;;;;;7365556;19;20574;-51
2022/12/05 10:22:11;;;;;;;15.80;9.40;;;5.50;99.90;;;;;;7364928;19;20490;-50
2022/12/05 10:24:49;;;;;;;18.35;12.82;;;5.50;99.90;;;;;;7367051;19;20018;-51
2022/12/05 10:27:41;;;;;;;15.13;10.35;;;5.50;99.90;;;;;;7363848;19;20046;-52
2022/12/05 10:30:15;;;;;;;12.52;9.20;;;5.50;99.90;;;;;;7364624;19;20026;-52
2022/12/05 10:32:58;;;;;;;14.93;9.38;;;5.50;99.90;;;;;;7363032;19;20018;-51
2022/12/05 10:35:33;;;;;;;13.57;7.10;;;5.50;99.90;;;;;;7363042;19;20090;-52
2022/12/05 10:38:05;;;;;;;14.88;8.85;;;5.50;99.90;;;;;;7365751;19;20501;-52
2022/12/05 10:40:45;;;;;;;14.00;8.48;;;5.50;99.90;;;;;;7369209;19;20014;-52
2022/12/05 10:43:17;;;;;;;16.23;10.32;;;5.50;99.90;;;;;;7369872;19;20018;-51
2022/12/05 10:45:47;;;;;;;13.88;9.60;;;5.50;99.90;;;;;;7367861;19;20650;-52
2022/12/05 10:48:16;;;;;;;15.15;9.10;;;5.50;99.90;;;;;;7368976;19;20429;-52
2022/12/05 10:50:45;;;;;;;20.20;13.13;;;5.50;99.90;;;;;;7365337;19;20025;-52
2022/12/05 10:53:22;;;;;;;13.48;8.77;;;5.50;99.90;;;;;;7363435;19;20031;-45
2022/12/05 10:55:51;;;;;;;15.93;10.43;;;5.50;99.90;;;;;;7366128;19;20581;-52
2022/12/05 10:58:27;;;;;;;15.13;10.10;;;5.50;99.90;;;;;;7361328;19;20798;-45
2022/12/05 11:01:22;;;;;;;16.35;9.60;;;5.50;99.90;;;;;;7356746;19;20033;-49
2022/12/05 11:03:56;;;;;;;14.32;9.02;;;5.50;99.90;;;;;;7356820;19;20046;-48
2022/12/05 11:06:25;;;;;;;14.80;9.05;;;5.50;99.90;;;;;;7366525;19;20022;-45
2022/12/05 11:08:58;;;;;;;14.63;9.68;;;5.50;99.90;;;;;;7361020;19;20082;-42
2022/12/05 11:11:28;;;;;;;14.35;9.30;;;5.50;99.90;;;;;;7363584;19;20346;-52
2022/12/05 11:14:06;;;;;;;55.33;36.78;;;5.50;99.90;;;;;;7364936;19;20481;-52
2022/12/05 11:16:38;;;;;;;19.27;12.95;;;5.50;99.90;;;;;;7367764;19;20106;-53
2022/12/05 11:19:25;;;;;;;21.38;14.63;;;5.50;99.90;;;;;;7368924;19;20422;-44
2022/12/05 11:21:52;;;;;;;15.00;10.10;;;5.50;99.90;;;;;;7354572;19;20019;-46
2022/12/05 11:24:30;;;;;;;22.60;12.90;;;5.50;99.90;;;;;;7362094;19;20023;-45
2022/12/05 11:27:19;;;;;;;15.98;10.73;;;5.50;99.90;;;;;;7355105;19;20035;-43
2022/12/05 11:30:01;;;;;;;17.23;10.02;;;5.50;99.90;;;;;;7355740;19;20034;-46
2022/12/05 11:32:32;;;;;;;18.88;11.88;;;5.50;99.90;;;;;;7358370;19;20526;-45
2022/12/05 11:35:28;;;;;;;16.95;11.85;;;5.50;99.90;;;;;;7363394;19;20010;-44
2022/12/05 11:37:54;;;;;;;15.63;10.00;;;5.50;99.90;;;;;;7374135;19;20049;-53
2022/12/05 11:40:32;;;;;;;14.48;9.85;;;5.50;99.90;;;;;;7377215;19;20510;-52
2022/12/05 11:43:35;;;;;;;13.63;8.50;;;5.50;99.90;;;;;;7371675;19;20449;-53
2022/12/05 11:46:13;;;;;;;;;;;5.50;99.90;;;;;;7376271;19;20018;-52
2022/12/05 11:49:16;;;;;;;16.95;10.32;;;5.50;99.90;;;;;;7371586;19;19918;-45
2022/12/05 11:52:01;;;;;;;14.85;9.65;;;5.50;99.90;;;;;;7370620;19;20071;-44
2022/12/05 11:55:01;;;;;;;17.50;11.10;;;5.60;99.90;;;;;;7365476;19;20509;-48
2022/12/05 11:57:49;;;;;;;16.00;10.65;;;5.60;99.90;;;;;;7366938;19;20026;-44
2022/12/05 12:01:01;;;;;;;14.68;10.20;;;5.60;99.90;;;;;;7364870;19;20086;-45
2022/12/05 12:03:51;;;;;;;15.35;9.98;;;5.60;99.90;;;;;;7364623;19;20043;-44
2022/12/05 12:06:45;;;;;;;14.50;10.65;;;5.60;99.90;;;;;;7361763;19;20029;-46
2022/12/05 12:09:58;;;;;;;15.75;10.55;;;5.60;99.90;;;;;;7367515;19;20028;-46
2022/12/05 12:12:33;;;;;;;11.55;8.60;;;5.60;99.90;;;;;;7363580;19;20006;-45
2022/12/05 12:15:06;;;;;;;14.68;9.68;;;5.60;99.90;;;;;;7360948;19;20379;-48
2022/12/05 12:17:53;;;;;;;13.80;8.93;;;5.60;99.90;;;;;;7366511;19;20367;-48
2022/12/05 12:20:40;;;;;;;13.20;7.28;;;5.60;99.90;;;;;;7373744;19;20019;-53
2022/12/05 12:23:19;;;;;;;11.13;7.32;;;5.60;99.90;;;;;;7373514;19;20017;-53
2022/12/05 12:26:11;;;;;;;12.00;7.00;;;5.60;99.90;;;;;;7372751;19;20899;-53
2022/12/05 12:29:01;;;;;;;11.35;6.82;;;5.60;99.90;;;;;;7372540;19;20021;-54
2022/12/05 12:31:48;;;;;;;10.55;6.25;;;5.60;99.90;;;;;;7373997;19;20050;-53
2022/12/05 12:35:02;;;;;;;9.90;6.90;;;5.60;99.90;;;;;;7373661;19;20040;-49
2022/12/05 12:37:37;;;;;;;12.40;8.05;;;5.60;99.90;;;;;;7372157;19;20480;-53
2022/12/05 12:40:12;;;;;;;11.13;8.00;;;5.60;99.90;;;;;;7372453;19;20417;-52
2022/12/05 12:42:59;;;;;;;11.20;6.82;;;5.60;99.90;;;;;;7372797;19;20385;-51
2022/12/05 12:45:46;;;;;;;11.27;7.10;;;5.60;99.90;;;;;;7370227;19;20565;-47
2022/12/05 12:48:15;;;;;;;11.65;7.07;;;5.60;99.90;;;;;;7368525;19;20015;-45
2022/12/05 12:50:45;;;;;;;11.00;7.20;;;5.60;99.90;;;;;;7362505;19;20014;-48
2022/12/05 12:53:27;;;;;;;11.18;7.38;;;5.60;99.90;;;;;;7365763;19;20014;-46
2022/12/05 12:56:07;;;;;;;12.93;8.13;;;5.60;99.90;;;;;;7361780;19;20041;-47
2022/12/05 12:59:07;;;;;;;9.30;6.88;;;5.60;99.90;;;;;;7362241;19;20489;-45
2022/12/05 13:01:56;;;;;;;12.50;6.82;;;5.70;99.90;;;;;;7365721;19;20017;-45
2022/12/05 13:04:26;;;;;;;9.52;6.50;;;5.60;99.90;;;;;;7360813;19;20046;-45
2022/12/05 13:07:04;;;;;;;8.38;4.90;;;5.60;99.90;;;;;;7361264;19;20745;-48
2022/12/05 13:09:39;;;;;;;23.90;16.20;;;5.60;99.90;;;;;;7364419;19;20497;-45
2022/12/05 13:12:11;;;;;;;13.18;8.18;;;5.60;99.90;;;;;;7364870;19;20018;-48
2022/12/05 13:14:44;;;;;;;8.60;4.93;;;5.60;99.90;;;;;;7362634;19;20042;-46
2022/12/05 13:17:18;;;;;;;8.98;6.10;;;5.70;99.90;;;;;;7362717;19;20018;-45
2022/12/05 13:19:48;;;;;;;8.63;6.05;;;5.70;99.90;;;;;;7361275;19;20473;-45
2022/12/05 13:22:17;;;;;;;8.73;5.90;;;5.60;99.90;;;;;;7364958;19;20010;-52
2022/12/05 13:24:44;;;;;;;10.65;6.97;;;5.70;99.90;;;;;;7373694;19;20928;-53
2022/12/05 13:27:20;;;;;;;8.57;5.32;;;5.70;99.90;;;;;;7372320;19;20474;-52
2022/12/05 13:29:49;;;;;;;8.27;4.88;;;5.70;99.90;;;;;;7369881;19;20051;-53
2022/12/05 13:32:28;;;;;;;9.63;6.03;;;5.70;99.90;;;;;;7372428;19;20019;-53